Time;durP1;ratioP1;P1;durP2;ratioP2;P2;SDS_P1;SDS_P2;PMS_P1;PMS_P2;Temp;Humidity;BMP_temperature;BMP_pressure;BME280_temperature;BME280_humidity;BME280_pressure;Samples;Min_cycle;Max_cycle;Signal;HPM_P1;HPM_P2
2022/03/23 00:01:56;;;;;;;2.33;2.22;;;6.80;99.90;;;;;;5016446;28;20197;-63
2022/03/23 00:04:23;;;;;;;2.97;2.25;;;6.80;99.90;;;;;;5015471;28;20679;-64
2022/03/23 00:06:52;;;;;;;2.70;2.50;;;6.70;99.90;;;;;;5017376;28;20235;-65
2022/03/23 00:09:18;;;;;;;2.60;2.50;;;6.70;99.90;;;;;;5012848;28;20201;-64
2022/03/23 00:11:45;;;;;;;2.78;2.58;;;6.70;99.90;;;;;;5025700;28;20228;-65
2022/03/23 00:14:13;;;;;;;2.72;2.53;;;6.60;99.90;;;;;;5022197;28;20311;-64
2022/03/23 00:16:41;;;;;;;2.57;2.43;;;6.60;99.90;;;;;;5028610;28;20219;-64
2022/03/23 00:19:08;;;;;;;2.78;2.58;;;6.60;99.90;;;;;;5031817;28;20216;-64
2022/03/23 00:21:36;;;;;;;2.30;2.20;;;6.60;99.90;;;;;;5020474;28;20700;-63
2022/03/23 00:24:05;;;;;;;2.30;2.20;;;6.60;99.90;;;;;;5009153;28;20312;-65
2022/03/23 00:26:32;;;;;;;2.20;2.10;;;6.60;99.90;;;;;;5010184;28;20259;-64
2022/03/23 00:28:59;;;;;;;2.10;2.00;;;6.60;99.90;;;;;;5010426;28;20205;-62
2022/03/23 00:31:26;;;;;;;2.40;2.30;;;6.70;99.90;;;;;;5017298;28;20216;-63
2022/03/23 00:33:54;;;;;;;2.00;1.90;;;6.70;99.90;;;;;;5013969;28;20221;-64
2022/03/23 00:36:22;;;;;;;2.15;2.05;;;6.80;99.90;;;;;;5017314;28;20207;-63
2022/03/23 00:38:50;;;;;;;2.00;1.90;;;6.80;99.90;;;;;;5021422;28;20204;-64
2022/03/23 00:41:18;;;;;;;2.07;1.97;;;6.90;99.90;;;;;;5026146;28;20197;-64
2022/03/23 00:43:45;;;;;;;2.10;2.00;;;6.90;99.90;;;;;;5032831;28;20648;-64
2022/03/23 00:46:12;;;;;;;2.00;1.90;;;6.90;99.90;;;;;;5030598;28;20291;-64
2022/03/23 00:48:39;;;;;;;2.25;2.15;;;6.90;99.90;;;;;;5034732;28;20239;-63
2022/03/23 00:51:06;;;;;;;2.20;2.10;;;6.90;99.90;;;;;;5034915;28;20209;-64
2022/03/23 00:53:34;;;;;;;2.25;2.15;;;6.80;99.90;;;;;;5044588;23;20977;-65
2022/03/23 00:56:01;;;;;;;2.10;2.00;;;6.80;99.90;;;;;;5031588;28;20209;-66
2022/03/23 00:58:29;;;;;;;2.40;2.20;;;6.70;99.90;;;;;;5039835;28;20224;-66
2022/03/23 01:00:56;;;;;;;2.30;2.20;;;6.60;99.90;;;;;;5037766;28;20211;-66
2022/03/23 01:03:23;;;;;;;2.13;2.03;;;6.60;99.90;;;;;;5034496;28;20225;-65
2022/03/23 01:05:52;;;;;;;2.38;2.28;;;6.60;99.90;;;;;;5033382;28;20220;-67
2022/03/23 01:08:19;;;;;;;2.07;1.97;;;6.50;99.90;;;;;;5041114;28;20205;-66
2022/03/23 01:10:45;;;;;;;2.22;2.13;;;6.50;99.90;;;;;;5039738;28;20239;-65
2022/03/23 01:13:12;;;;;;;2.40;2.30;;;6.50;99.90;;;;;;5040833;28;20308;-66
2022/03/23 01:15:41;;;;;;;2.53;2.42;;;6.50;99.90;;;;;;5039723;28;20239;-65
2022/03/23 01:18:09;;;;;;;2.30;2.20;;;6.50;99.90;;;;;;5040849;28;20213;-66
2022/03/23 01:20:36;;;;;;;2.30;2.20;;;6.50;99.90;;;;;;5041003;28;20208;-66
2022/03/23 01:23:04;;;;;;;2.60;2.40;;;6.40;99.90;;;;;;5034069;28;20267;-65
2022/03/23 01:25:31;;;;;;;2.83;2.58;;;6.40;99.90;;;;;;5042126;28;20235;-65
2022/03/23 01:27:58;;;;;;;2.80;2.60;;;6.50;99.90;;;;;;5046928;28;20252;-65
2022/03/23 01:30:25;;;;;;;2.50;2.40;;;6.20;99.90;;;;;;5036487;28;20201;-68
2022/03/23 01:32:54;;;;;;;2.10;2.00;;;6.20;99.90;;;;;;5034026;28;20287;-67
2022/03/23 01:35:21;;;;;;;2.53;2.40;;;6.10;99.90;;;;;;5036044;28;20204;-66
2022/03/23 01:37:48;;;;;;;2.58;2.40;;;6.20;99.90;;;;;;5036775;28;20217;-65
2022/03/23 01:40:16;;;;;;;2.20;2.10;;;6.10;99.90;;;;;;5028655;28;20201;-66
2022/03/23 01:42:44;;;;;;;2.22;2.10;;;6.20;99.90;;;;;;5033279;28;20204;-65
2022/03/23 01:45:12;;;;;;;2.50;2.40;;;6.00;99.90;;;;;;5035529;28;20234;-64
2022/03/23 01:47:39;;;;;;;2.20;2.10;;;6.10;99.90;;;;;;5040122;28;20239;-66
2022/03/23 01:50:09;;;;;;;2.60;2.50;;;6.10;99.90;;;;;;5043368;28;20287;-66
2022/03/23 01:52:38;;;;;;;2.33;2.23;;;6.00;99.90;;;;;;5039550;28;20268;-67
2022/03/23 01:55:07;;;;;;;2.53;2.33;;;5.90;99.90;;;;;;5043531;28;20295;-63
2022/03/23 01:57:35;;;;;;;2.20;2.10;;;5.90;99.90;;;;;;5036426;28;20756;-66
2022/03/23 02:00:03;;;;;;;2.20;2.10;;;5.90;99.90;;;;;;5034205;28;20327;-64
2022/03/23 02:02:30;;;;;;;2.58;2.40;;;5.90;99.90;;;;;;5035080;28;20295;-66
2022/03/23 02:04:57;;;;;;;2.20;2.10;;;5.90;99.90;;;;;;5039813;28;20312;-68
2022/03/23 02:07:26;;;;;;;2.30;2.20;;;5.90;99.90;;;;;;5034576;28;20644;-65
2022/03/23 02:09:52;;;;;;;2.30;2.20;;;5.90;99.90;;;;;;5033997;28;20262;-66
2022/03/23 02:12:20;;;;;;;2.10;2.00;;;5.90;99.90;;;;;;5032924;28;20589;-65
2022/03/23 02:14:48;;;;;;;2.30;2.20;;;5.90;99.90;;;;;;5033299;28;20216;-67
2022/03/23 02:17:15;;;;;;;2.50;2.30;;;5.80;99.90;;;;;;5033607;28;20296;-66
2022/03/23 02:19:43;;;;;;;2.17;2.08;;;5.80;99.90;;;;;;5033715;28;20205;-65
2022/03/23 02:22:11;;;;;;;2.30;2.20;;;5.80;99.90;;;;;;5033688;28;20898;-67
2022/03/23 02:24:38;;;;;;;2.28;2.17;;;5.90;99.90;;;;;;5032965;28;20687;-65
2022/03/23 02:27:06;;;;;;;2.75;2.55;;;5.80;99.90;;;;;;5034227;28;20211;-66
2022/03/23 02:29:34;;;;;;;2.42;2.33;;;5.80;99.90;;;;;;5035499;28;20201;-65
2022/03/23 02:32:02;;;;;;;2.50;2.30;;;5.80;99.90;;;;;;5034056;28;20205;-66
2022/03/23 02:34:30;;;;;;;2.35;2.25;;;5.80;99.90;;;;;;5034941;28;20243;-67
2022/03/23 02:36:57;;;;;;;2.40;2.30;;;5.80;99.90;;;;;;5033847;28;20219;-67
2022/03/23 02:39:25;;;;;;;2.40;2.30;;;5.80;99.90;;;;;;5033096;28;20318;-67
2022/03/23 02:41:53;;;;;;;2.30;2.20;;;5.80;99.90;;;;;;5032677;28;20212;-66
2022/03/23 02:44:21;;;;;;;2.42;2.25;;;5.70;99.90;;;;;;5031830;28;20228;-65
2022/03/23 02:46:48;;;;;;;2.30;2.20;;;5.70;99.90;;;;;;5032609;28;20215;-65
2022/03/23 02:49:20;;;;;;;2.40;2.30;;;5.70;99.90;;;;;;5032846;28;20208;-68
2022/03/23 02:51:47;;;;;;;2.20;2.10;;;5.60;99.90;;;;;;5032216;28;20279;-66
2022/03/23 03:02:41;;;;;;;2.45;2.35;;;5.50;99.90;;;;;;5032110;28;20192;-66
2022/03/23 03:05:11;;;;;;;2.55;2.40;;;5.50;99.90;;;;;;5030411;28;20231;-65
2022/03/23 03:10:19;;;;;;;2.50;2.40;;;5.40;99.90;;;;;;5031230;28;20196;-64
2022/03/23 03:12:47;;;;;;;2.40;2.30;;;5.40;99.90;;;;;;5032307;28;20200;-65
2022/03/23 03:15:15;;;;;;;2.30;2.20;;;5.40;99.90;;;;;;5032733;28;20307;-67
2022/03/23 03:17:42;;;;;;;2.30;2.20;;;5.40;99.90;;;;;;5033259;28;20312;-68
2022/03/23 03:20:11;;;;;;;2.33;2.23;;;5.40;99.90;;;;;;5038812;28;20284;-66
2022/03/23 03:22:40;;;;;;;2.42;2.33;;;5.40;99.90;;;;;;5052497;28;20235;-66
2022/03/23 03:25:07;;;;;;;2.45;2.35;;;5.30;99.90;;;;;;5032718;28;20231;-66
2022/03/23 03:27:39;;;;;;;2.40;2.30;;;5.30;99.90;;;;;;5033075;28;20208;-67
2022/03/23 03:30:11;;;;;;;2.50;2.40;;;5.30;99.90;;;;;;5033223;28;20209;-65
2022/03/23 03:32:38;;;;;;;2.60;2.40;;;5.40;99.90;;;;;;5032219;28;20263;-65
2022/03/23 03:35:06;;;;;;;2.30;2.20;;;5.40;99.90;;;;;;5032006;28;20209;-66
2022/03/23 03:37:34;;;;;;;2.43;2.33;;;5.40;99.90;;;;;;5032034;28;20635;-67
2022/03/23 03:40:00;;;;;;;2.50;2.40;;;5.40;99.90;;;;;;5031892;28;20754;-67
2022/03/23 03:42:27;;;;;;;2.50;2.40;;;5.30;99.90;;;;;;5028897;28;20215;-67
2022/03/23 03:44:54;;;;;;;2.13;2.03;;;5.30;99.90;;;;;;5031828;28;20263;-66
2022/03/23 03:47:23;;;;;;;2.13;2.03;;;5.30;99.90;;;;;;5031886;28;20209;-66
2022/03/23 03:49:50;;;;;;;2.33;2.22;;;5.30;99.90;;;;;;5031690;28;20205;-65
2022/03/23 03:52:18;;;;;;;2.30;2.20;;;5.30;99.90;;;;;;5031188;28;20200;-68
2022/03/23 03:54:44;;;;;;;2.35;2.25;;;5.30;99.90;;;;;;5030837;28;20235;-66
2022/03/23 03:57:11;;;;;;;2.20;2.10;;;5.30;99.90;;;;;;5031577;28;20701;-65
2022/03/23 03:59:38;;;;;;;2.40;2.30;;;5.30;99.90;;;;;;5032542;28;20264;-69
2022/03/23 04:02:05;;;;;;;2.10;2.00;;;5.30;99.90;;;;;;5032156;28;20232;-67
2022/03/23 04:04:34;;;;;;;2.20;2.10;;;5.30;99.90;;;;;;5033821;28;20323;-68
2022/03/23 04:07:01;;;;;;;2.30;2.20;;;5.30;99.90;;;;;;5055483;28;20239;-69
2022/03/23 04:09:28;;;;;;;2.30;2.20;;;5.20;99.90;;;;;;5056652;28;20204;-66
2022/03/23 04:11:56;;;;;;;2.20;2.10;;;5.20;99.90;;;;;;5056263;28;20235;-66
2022/03/23 04:14:23;;;;;;;2.20;2.10;;;5.20;99.90;;;;;;5051708;28;20251;-70
2022/03/23 04:16:49;;;;;;;2.20;2.10;;;5.10;99.90;;;;;;5036504;28;20197;-66
2022/03/23 04:19:16;;;;;;;2.10;2.00;;;5.00;99.90;;;;;;5036638;28;20232;-65
2022/03/23 04:21:45;;;;;;;2.10;2.00;;;4.90;99.90;;;;;;5036538;28;20215;-67
2022/03/23 04:24:12;;;;;;;2.13;2.03;;;4.80;99.90;;;;;;5037320;28;20220;-67
2022/03/23 04:26:39;;;;;;;2.53;2.42;;;4.80;99.90;;;;;;5037507;28;20207;-66
2022/03/23 04:29:06;;;;;;;2.40;2.30;;;4.80;99.90;;;;;;5037105;28;20580;-66
2022/03/23 04:31:33;;;;;;;2.28;2.17;;;4.70;99.90;;;;;;5036998;28;20211;-67
2022/03/23 04:34:00;;;;;;;2.53;2.42;;;4.70;99.90;;;;;;5044648;28;20248;-71
2022/03/23 04:36:27;;;;;;;2.40;2.30;;;4.70;99.90;;;;;;5053706;28;20239;-67
2022/03/23 04:38:56;;;;;;;2.10;2.00;;;4.60;99.90;;;;;;5056542;28;20263;-67
2022/03/23 04:41:23;;;;;;;2.25;2.15;;;4.50;99.90;;;;;;5052255;28;20235;-68
2022/03/23 04:43:50;;;;;;;2.35;2.25;;;4.50;99.90;;;;;;5044870;28;20761;-68
2022/03/23 04:46:17;;;;;;;2.20;2.10;;;4.60;99.90;;;;;;5042441;28;20288;-68
2022/03/23 04:48:44;;;;;;;2.30;2.20;;;4.60;99.90;;;;;;5039684;28;20236;-68
2022/03/23 04:51:12;;;;;;;2.05;1.95;;;4.60;99.90;;;;;;5037308;28;20213;-68
2022/03/23 04:53:39;;;;;;;2.42;2.33;;;4.60;99.90;;;;;;5035941;28;20238;-67
2022/03/23 04:56:08;;;;;;;2.25;2.10;;;4.50;99.90;;;;;;5034786;28;20206;-67
2022/03/23 04:58:35;;;;;;;2.30;2.20;;;4.50;99.90;;;;;;5033367;28;20223;-69
2022/03/23 05:01:02;;;;;;;2.30;2.20;;;4.50;99.90;;;;;;5034709;28;20212;-71
2022/03/23 05:03:29;;;;;;;2.40;2.30;;;4.50;99.90;;;;;;5034735;28;20221;-67
2022/03/23 05:05:56;;;;;;;2.30;2.20;;;4.50;99.90;;;;;;5035993;28;20226;-69
2022/03/23 05:08:23;;;;;;;2.38;2.28;;;4.50;99.90;;;;;;5035542;28;20563;-66
2022/03/23 05:10:50;;;;;;;2.30;2.20;;;4.50;99.90;;;;;;5035776;28;20232;-71
2022/03/23 05:13:19;;;;;;;2.50;2.30;;;4.40;99.90;;;;;;5035586;28;20244;-66
2022/03/23 05:15:46;;;;;;;2.83;2.63;;;4.40;99.90;;;;;;5046858;28;20224;-68
2022/03/23 05:18:13;;;;;;;2.30;2.20;;;4.30;99.90;;;;;;5047835;28;20201;-70
2022/03/23 05:20:40;;;;;;;2.77;2.60;;;4.30;99.90;;;;;;5035480;28;20721;-69
2022/03/23 05:23:07;;;;;;;2.33;2.22;;;4.20;99.90;;;;;;5034329;28;20224;-68
2022/03/23 05:25:34;;;;;;;2.15;2.05;;;4.30;99.90;;;;;;5039345;28;20227;-67
2022/03/23 05:28:01;;;;;;;2.63;2.53;;;4.20;99.90;;;;;;5044786;28;20239;-68
2022/03/23 05:30:29;;;;;;;2.33;2.22;;;4.30;99.90;;;;;;5044038;28;20291;-68
2022/03/23 05:32:56;;;;;;;2.30;2.20;;;4.30;99.90;;;;;;5045002;28;20215;-68
2022/03/23 05:35:24;;;;;;;2.30;2.20;;;4.30;99.90;;;;;;5038669;28;20236;-67
2022/03/23 05:37:51;;;;;;;2.47;2.38;;;4.30;99.90;;;;;;5034174;28;20209;-68
2022/03/23 05:40:19;;;;;;;2.45;2.30;;;4.30;99.90;;;;;;5035636;28;20229;-69
2022/03/23 05:42:46;;;;;;;2.50;2.40;;;4.40;99.90;;;;;;5033240;28;20227;-67
2022/03/23 05:45:13;;;;;;;2.23;2.13;;;4.40;99.90;;;;;;5029921;28;20679;-69
2022/03/23 05:47:41;;;;;;;2.33;2.17;;;4.40;99.90;;;;;;5033574;28;20634;-68
2022/03/23 05:50:10;;;;;;;2.15;2.05;;;4.40;99.90;;;;;;5033929;28;20200;-68
2022/03/23 05:52:38;;;;;;;2.20;2.10;;;4.40;99.90;;;;;;5030336;28;20204;-68
2022/03/23 05:55:07;;;;;;;3.88;2.17;;;4.40;99.90;;;;;;5032548;28;20259;-69
2022/03/23 05:57:34;;;;;;;2.53;2.43;;;4.30;99.90;;;;;;5027013;28;20252;-68
2022/03/23 06:00:01;;;;;;;2.50;2.40;;;4.30;99.90;;;;;;5031091;28;20823;-69
2022/03/23 06:02:28;;;;;;;2.60;2.50;;;4.40;99.90;;;;;;5029267;28;20235;-68
2022/03/23 06:04:56;;;;;;;2.37;2.27;;;4.50;99.90;;;;;;5021227;28;20316;-68
2022/03/23 06:07:23;;;;;;;2.33;2.22;;;4.60;99.90;;;;;;5025745;28;20291;-67
2022/03/23 06:09:50;;;;;;;2.67;2.43;;;4.60;99.90;;;;;;5022359;28;20547;-68
2022/03/23 06:12:17;;;;;;;2.47;2.37;;;4.60;99.90;;;;;;5032130;28;20324;-68
2022/03/23 06:14:44;;;;;;;2.25;2.05;;;4.60;99.90;;;;;;5021466;28;20220;-69
2022/03/23 06:17:12;;;;;;;3.03;2.43;;;4.70;99.90;;;;;;5024417;28;20208;-68
2022/03/23 06:19:39;;;;;;;2.40;2.30;;;4.80;99.90;;;;;;5029553;28;20706;-68
2022/03/23 06:22:07;;;;;;;2.22;2.13;;;4.80;99.90;;;;;;5027323;28;20291;-69
2022/03/23 06:24:34;;;;;;;2.40;2.30;;;4.90;99.90;;;;;;5025475;28;20248;-69
2022/03/23 06:27:01;;;;;;;2.53;2.43;;;5.00;99.90;;;;;;5032550;28;20291;-69
2022/03/23 06:29:29;;;;;;;2.30;2.20;;;5.00;99.90;;;;;;5033458;28;20666;-68
2022/03/23 06:31:56;;;;;;;2.35;2.25;;;5.00;99.90;;;;;;5033828;28;20216;-68
2022/03/23 06:34:23;;;;;;;2.67;2.47;;;5.00;99.90;;;;;;5030775;28;20223;-68
2022/03/23 06:36:50;;;;;;;2.20;2.10;;;5.10;99.90;;;;;;5031459;28;20211;-70
2022/03/23 06:39:18;;;;;;;2.40;2.30;;;5.20;99.90;;;;;;5028286;28;20274;-68
2022/03/23 06:41:45;;;;;;;2.95;2.75;;;5.20;99.90;;;;;;5028382;28;20212;-68
2022/03/23 06:44:13;;;;;;;3.00;2.80;;;5.30;99.90;;;;;;5017163;28;20232;-69
2022/03/23 06:46:40;;;;;;;2.72;2.53;;;5.30;99.90;;;;;;5036354;28;20228;-69
2022/03/23 06:49:07;;;;;;;3.20;3.00;;;5.30;99.90;;;;;;5036302;28;20288;-68
2022/03/23 06:51:34;;;;;;;2.73;2.60;;;5.40;99.90;;;;;;5036939;28;20268;-67
2022/03/23 06:54:01;;;;;;;2.47;2.38;;;5.50;99.90;;;;;;5037585;28;20706;-68
2022/03/23 06:56:29;;;;;;;2.67;2.53;;;5.50;99.90;;;;;;5033902;28;20239;-68
2022/03/23 06:58:57;;;;;;;2.30;2.20;;;5.60;99.90;;;;;;5028127;28;20228;-67
2022/03/23 07:01:24;;;;;;;2.35;2.20;;;5.60;99.90;;;;;;5041440;23;20321;-63
2022/03/23 07:03:50;;;;;;;2.90;2.63;;;5.70;99.90;;;;;;5010784;28;20240;-64
2022/03/23 07:06:18;;;;;;;2.30;2.20;;;5.80;99.90;;;;;;5013128;28;20305;-62
2022/03/23 07:11:31;;;;;;;2.47;2.37;;;6.20;99.90;;;;;;5005211;28;20697;-62
2022/03/23 07:13:58;;;;;;;2.60;2.50;;;6.30;99.90;;;;;;5011537;28;20252;-63
2022/03/23 07:16:25;;;;;;;2.50;2.40;;;6.50;99.90;;;;;;5012741;28;20205;-63
2022/03/23 07:18:52;;;;;;;2.30;2.20;;;6.60;99.90;;;;;;5012834;28;20205;-63
2022/03/23 07:21:19;;;;;;;2.35;2.25;;;6.80;99.90;;;;;;5012217;28;20296;-61
2022/03/23 07:23:46;;;;;;;1.95;1.85;;;7.00;99.90;;;;;;5012081;28;20515;-62
2022/03/23 07:26:13;;;;;;;2.13;2.03;;;7.10;99.90;;;;;;5012580;28;20228;-61
2022/03/23 07:28:41;;;;;;;2.20;2.10;;;7.30;99.90;;;;;;5009924;28;20667;-63
2022/03/23 07:31:08;;;;;;;2.47;2.37;;;7.30;99.90;;;;;;5012830;28;20375;-62
2022/03/23 07:33:35;;;;;;;2.20;2.10;;;7.50;99.90;;;;;;5011503;28;20256;-61
2022/03/23 07:36:02;;;;;;;2.60;2.50;;;7.60;99.90;;;;;;5012870;28;20201;-62
2022/03/23 07:38:30;;;;;;;2.30;2.20;;;7.80;99.90;;;;;;5013047;28;21345;-64
2022/03/23 07:40:56;;;;;;;2.47;2.37;;;7.90;99.90;;;;;;5010641;28;20224;-63
2022/03/23 07:43:23;;;;;;;2.80;2.60;;;8.00;99.90;;;;;;5010753;28;20228;-62
2022/03/23 07:45:52;;;;;;;2.70;2.60;;;8.00;99.90;;;;;;5010611;28;20244;-62
2022/03/23 07:48:20;;;;;;;2.93;2.73;;;8.20;99.90;;;;;;5014984;28;20638;-62
2022/03/23 07:50:47;;;;;;;2.95;2.80;;;8.30;99.90;;;;;;5014374;28;20770;-62
2022/03/23 07:53:14;;;;;;;2.83;2.73;;;8.40;99.90;;;;;;5013298;28;20241;-62
2022/03/23 07:55:41;;;;;;;2.90;2.70;;;8.60;99.90;;;;;;5012945;28;20826;-61
2022/03/23 07:58:08;;;;;;;2.88;2.78;;;8.70;99.90;;;;;;5010862;28;20300;-64
2022/03/23 08:00:35;;;;;;;3.00;2.80;;;8.90;99.90;;;;;;5011952;28;20244;-62
2022/03/23 08:03:03;;;;;;;3.20;3.00;;;9.00;99.90;;;;;;5011808;28;20264;-62
2022/03/23 08:05:31;;;;;;;3.10;2.90;;;9.20;99.90;;;;;;5016157;28;20229;-61
2022/03/23 08:07:58;;;;;;;3.40;3.10;;;9.30;99.90;;;;;;5017182;28;20252;-62
2022/03/23 08:10:26;;;;;;;3.07;2.77;;;9.40;99.90;;;;;;5014554;28;20315;-63
2022/03/23 08:12:53;;;;;;;3.00;2.80;;;9.60;99.90;;;;;;5011509;28;20263;-61
2022/03/23 08:15:20;;;;;;;3.40;3.20;;;9.80;99.90;;;;;;5011683;28;20287;-61
2022/03/23 08:17:47;;;;;;;3.40;3.20;;;9.90;99.90;;;;;;5009546;28;20647;-62
2022/03/23 08:20:33;;;;;;;2.93;2.80;;;10.00;99.90;;;;;;5011221;28;20723;-62
2022/03/23 08:23:01;;;;;;;3.20;3.00;;;10.10;99.90;;;;;;5031214;28;20567;-63
2022/03/23 08:25:28;;;;;;;3.00;2.90;;;10.30;99.90;;;;;;5031390;28;20732;-61
2022/03/23 08:27:55;;;;;;;2.80;2.70;;;10.40;99.90;;;;;;5031535;28;20590;-62
2022/03/23 08:30:22;;;;;;;3.40;3.20;;;10.50;99.90;;;;;;5018036;28;20336;-62
2022/03/23 08:32:49;;;;;;;3.70;3.40;;;10.70;99.90;;;;;;5011943;28;20205;-62
2022/03/23 08:35:18;;;;;;;3.03;2.87;;;10.70;99.90;;;;;;5011784;28;20212;-61
2022/03/23 08:37:45;;;;;;;3.57;3.27;;;10.80;99.90;;;;;;5012838;28;20205;-62
2022/03/23 08:40:12;;;;;;;2.92;2.78;;;10.90;99.90;;;;;;5012654;28;20229;-62
2022/03/23 08:42:39;;;;;;;3.05;2.85;;;11.10;99.90;;;;;;5009724;28;20203;-63
2022/03/23 08:45:07;;;;;;;3.15;2.95;;;11.20;99.90;;;;;;5013793;28;20490;-62
2022/03/23 08:47:35;;;;;;;3.00;2.80;;;11.20;99.90;;;;;;5013294;28;20229;-62
2022/03/23 08:50:02;;;;;;;3.70;3.50;;;11.20;99.90;;;;;;5012183;28;20215;-63
2022/03/23 08:52:30;;;;;;;3.47;3.17;;;11.20;99.90;;;;;;5014963;28;20205;-63
2022/03/23 08:54:57;;;;;;;3.20;3.00;;;11.20;99.90;;;;;;5015396;28;20588;-62
2022/03/23 08:57:24;;;;;;;3.17;2.97;;;11.50;99.90;;;;;;5015460;28;20288;-62
2022/03/23 08:59:51;;;;;;;3.50;3.20;;;11.50;99.90;;;;;;5015235;28;20205;-63
2022/03/23 09:02:18;;;;;;;3.38;3.17;;;11.60;99.90;;;;;;5014282;28;20653;-63
2022/03/23 09:04:45;;;;;;;2.97;2.87;;;11.90;99.90;;;;;;5014517;28;20213;-61
2022/03/23 09:07:12;;;;;;;3.20;2.90;;;12.10;99.90;;;;;;5014884;28;20315;-64
2022/03/23 09:09:40;;;;;;;3.50;3.30;;;12.20;99.90;;;;;;5015548;28;20228;-63
2022/03/23 09:12:09;;;;;;;3.10;2.90;;;12.20;99.90;;;;;;5014534;28;20722;-63
2022/03/23 09:14:36;;;;;;;3.50;3.30;;;12.30;99.90;;;;;;5013954;28;20197;-64
2022/03/23 09:17:03;;;;;;;3.33;3.13;;;12.30;99.90;;;;;;5015016;28;20639;-61
2022/03/23 09:19:31;;;;;;;3.40;3.20;;;12.40;99.90;;;;;;5015223;28;20209;-63
2022/03/23 09:21:59;;;;;;;3.40;3.20;;;12.50;99.90;;;;;;5014956;28;20237;-65
2022/03/23 09:24:26;;;;;;;3.20;3.00;;;12.70;99.90;;;;;;5022344;28;20205;-62
2022/03/23 09:26:55;;;;;;;3.55;3.25;;;12.90;99.90;;;;;;5034904;28;20220;-63
2022/03/23 09:29:22;;;;;;;4.00;3.20;;;13.00;99.90;;;;;;5034749;28;20209;-62
2022/03/23 09:31:49;;;;;;;3.20;3.00;;;13.10;99.90;;;;;;5034238;28;20224;-63
2022/03/23 09:34:16;;;;;;;3.28;3.08;;;13.20;99.90;;;;;;5033433;28;20632;-61
2022/03/23 09:39:27;;;;;;;4.20;3.20;;;13.50;99.90;;;;;;5015474;28;20765;-63
2022/03/23 09:41:58;;;;;;;3.38;3.17;;;13.60;99.90;;;;;;5015193;28;20225;-62
2022/03/23 09:44:28;;;;;;;3.63;3.42;;;13.50;99.90;;;;;;5013706;28;20209;-62
2022/03/23 09:46:55;;;;;;;3.40;3.20;;;13.60;99.90;;;;;;5034238;28;20244;-62
2022/03/23 09:49:23;;;;;;;2.80;2.60;;;13.70;99.90;;;;;;5034156;28;20215;-62
2022/03/23 09:51:53;;;;;;;3.17;2.97;;;13.80;99.90;;;;;;5020402;28;20251;-62
2022/03/23 09:54:21;;;;;;;3.50;3.30;;;14.00;99.90;;;;;;5013611;28;20577;-63
2022/03/23 09:56:47;;;;;;;3.40;3.20;;;14.00;99.90;;;;;;5017031;28;20254;-63
2022/03/23 09:59:16;;;;;;;3.42;3.22;;;14.10;99.90;;;;;;5016340;28;20291;-61
2022/03/23 10:02:13;;;;;;;3.45;3.25;;;14.30;99.90;;;;;;5015742;28;20325;-61
2022/03/23 10:05:28;;;;;;;2.90;2.80;;;14.40;99.90;;;;;;5013442;28;20306;-64
2022/03/23 10:08:09;;;;;;;3.53;3.33;;;14.50;99.90;;;;;;4997232;28;20738;-62
2022/03/23 10:11:17;;;;;;;3.65;3.45;;;14.40;99.90;;;;;;5015200;28;20324;-63
2022/03/23 10:14:24;;;;;;;3.63;3.33;;;14.60;99.90;;;;;;5024377;28;20288;-64
2022/03/23 10:17:29;;;;;;;3.40;3.10;;;15.00;99.90;;;;;;4987054;28;20235;-62
2022/03/23 10:19:58;;;;;;;3.40;3.20;;;15.10;99.90;;;;;;5011174;28;20209;-63
2022/03/23 10:22:28;;;;;;;2.90;2.70;;;15.10;99.90;;;;;;5014727;28;20216;-63
2022/03/23 10:24:55;;;;;;;3.20;3.00;;;15.10;99.90;;;;;;5014263;28;20201;-63
2022/03/23 10:27:25;;;;;;;3.60;3.30;;;15.10;99.90;;;;;;5014777;28;20316;-62
2022/03/23 10:29:53;;;;;;;3.47;3.17;;;15.00;99.90;;;;;;5016773;28;20564;-63
2022/03/23 10:32:21;;;;;;;3.55;3.35;;;15.10;99.90;;;;;;5013993;28;20213;-63
2022/03/23 10:34:49;;;;;;;3.47;3.22;;;15.10;99.90;;;;;;5013461;28;20668;-63
2022/03/23 10:37:25;;;;;;;3.50;3.30;;;15.30;99.90;;;;;;5013639;28;20202;-63
2022/03/23 10:39:52;;;;;;;3.63;3.42;;;15.50;99.90;;;;;;5013562;28;20216;-63
2022/03/23 10:42:22;;;;;;;3.20;3.00;;;15.50;99.90;;;;;;5013640;28;20205;-63
2022/03/23 10:44:50;;;;;;;3.28;3.08;;;15.70;99.90;;;;;;5016641;28;20581;-63
2022/03/23 10:47:24;;;;;;;3.30;3.10;;;15.60;99.90;;;;;;5034231;28;20311;-62
2022/03/23 10:49:52;;;;;;;3.53;3.33;;;15.70;99.90;;;;;;5035478;28;20224;-62
2022/03/23 10:52:20;;;;;;;3.20;3.10;;;15.80;99.90;;;;;;5034934;28;20212;-63
2022/03/23 10:54:55;;;;;;;3.47;3.28;;;15.80;99.90;;;;;;5032775;28;20205;-64
2022/03/23 10:57:35;;;;;;;3.80;3.60;;;15.90;99.90;;;;;;5033570;28;20230;-63
2022/03/23 11:00:01;;;;;;;3.88;3.65;;;15.90;99.90;;;;;;5033531;28;20207;-63
2022/03/23 11:02:28;;;;;;;4.10;3.80;;;16.10;99.90;;;;;;5032772;28;20246;-64
2022/03/23 11:04:56;;;;;;;3.97;3.78;;;16.20;99.90;;;;;;5033043;28;20270;-63
2022/03/23 11:07:27;;;;;;;4.30;4.00;;;16.20;99.90;;;;;;5034147;28;20256;-63
2022/03/23 11:18:09;;;;;;;4.03;3.83;;;16.40;99.90;;;;;;5043727;28;20250;-64
2022/03/23 11:20:44;;;;;;;4.18;3.97;;;16.40;99.90;;;;;;5033940;28;20233;-66
2022/03/23 11:23:22;;;;;;;4.70;4.32;;;16.50;99.90;;;;;;5033166;28;20210;-64
2022/03/23 11:25:50;;;;;;;4.47;4.07;;;16.60;99.90;;;;;;5033373;28;20188;-65
2022/03/23 11:28:18;;;;;;;4.50;4.10;;;16.60;99.90;;;;;;5032973;28;20227;-63
2022/03/23 11:30:47;;;;;;;4.22;4.00;;;16.50;99.90;;;;;;5032709;28;20315;-64
2022/03/23 11:33:17;;;;;;;4.15;3.85;;;16.70;99.90;;;;;;5033122;28;20211;-64
2022/03/23 11:35:48;;;;;;;4.03;3.80;;;16.80;99.90;;;;;;5037452;28;20756;-63
2022/03/23 11:38:18;;;;;;;4.47;4.18;;;16.90;99.90;;;;;;5035420;28;20184;-62
2022/03/23 11:40:47;;;;;;;4.35;4.05;;;16.90;99.90;;;;;;5036875;28;20225;-62
2022/03/23 11:43:15;;;;;;;4.53;4.22;;;17.00;99.90;;;;;;5035744;28;20201;-63
2022/03/23 11:45:45;;;;;;;4.55;4.32;;;17.10;99.90;;;;;;5032953;28;20205;-62
2022/03/23 11:48:21;;;;;;;4.72;4.43;;;17.10;99.90;;;;;;5032842;28;20315;-64
2022/03/23 11:51:10;;;;;;;4.63;4.27;;;17.00;99.90;;;;;;5032619;28;20256;-64
2022/03/23 11:53:44;;;;;;;4.50;4.30;;;17.00;99.90;;;;;;5031584;28;20563;-64
2022/03/23 11:56:11;;;;;;;5.10;4.60;;;17.10;99.90;;;;;;5032092;28;20196;-63
2022/03/23 11:58:39;;;;;;;4.68;4.38;;;17.10;99.90;;;;;;5031945;28;20299;-64
2022/03/23 12:01:11;;;;;;;4.43;4.20;;;17.20;99.90;;;;;;5032896;28;20236;-64
2022/03/23 12:03:49;;;;;;;4.57;4.28;;;17.30;99.90;;;;;;5034082;28;20212;-62
2022/03/23 12:06:18;;;;;;;4.60;4.30;;;17.40;99.90;;;;;;5036706;28;20240;-63
2022/03/23 12:08:49;;;;;;;4.43;4.13;;;17.40;99.90;;;;;;5035089;28;20707;-65
2022/03/23 12:11:38;;;;;;;5.03;4.70;;;17.40;99.90;;;;;;5032460;28;20225;-65
2022/03/23 12:14:07;;;;;;;4.68;4.38;;;17.50;99.90;;;;;;5030875;28;20205;-64
2022/03/23 12:17:09;;;;;;;4.60;4.40;;;17.60;99.90;;;;;;5033849;28;20197;-64
2022/03/23 12:19:55;;;;;;;4.90;4.60;;;17.70;99.90;;;;;;5044393;28;20219;-62
2022/03/23 12:22:46;;;;;;;5.55;5.05;;;17.80;99.90;;;;;;5045356;28;20209;-62
2022/03/23 12:25:22;;;;;;;4.93;4.63;;;17.80;99.90;;;;;;5043598;28;20272;-63
2022/03/23 12:27:57;;;;;;;5.07;4.77;;;17.80;99.90;;;;;;5037765;28;20230;-63
2022/03/23 12:30:39;;;;;;;5.07;4.68;;;17.80;99.90;;;;;;5036136;28;20251;-64
2022/03/23 12:33:11;;;;;;;5.10;4.80;;;17.90;99.90;;;;;;5034812;28;20228;-63
2022/03/23 12:35:39;;;;;;;4.57;4.38;;;18.10;99.90;;;;;;5035528;28;20662;-63
2022/03/23 12:38:18;;;;;;;5.30;4.97;;;18.00;99.90;;;;;;5035737;28;20209;-63
2022/03/23 12:40:47;;;;;;;5.78;5.38;;;18.10;99.90;;;;;;5036382;28;20255;-62
2022/03/23 12:43:36;;;;;;;5.22;4.93;;;18.20;99.90;;;;;;5035860;28;20210;-65
2022/03/23 12:46:04;;;;;;;5.30;5.00;;;18.10;99.90;;;;;;5035817;28;20193;-65
2022/03/23 12:59:37;;;;;;;5.38;4.97;;;18.20;99.90;;;;;;5041215;28;20212;-66
2022/03/23 13:02:31;;;;;;;5.50;5.20;;;18.20;99.90;;;;;;5047672;22;20323;-64
2022/03/23 13:04:59;;;;;;;5.30;5.00;;;18.20;99.90;;;;;;5030721;28;20211;-64
2022/03/23 13:07:44;;;;;;;5.90;5.50;;;18.20;99.90;;;;;;5034771;28;20271;-64
2022/03/23 13:10:13;;;;;;;5.63;5.10;;;18.30;99.90;;;;;;5035235;28;20262;-64
2022/03/23 13:12:44;;;;;;;5.65;5.18;;;18.40;99.90;;;;;;5034162;28;20303;-65
2022/03/23 13:15:14;;;;;;;5.50;5.15;;;18.50;99.90;;;;;;5033896;28;20205;-65
2022/03/23 13:17:43;;;;;;;4.88;4.57;;;18.50;99.90;;;;;;5034823;28;20502;-65
2022/03/23 13:20:12;;;;;;;5.47;5.07;;;18.50;99.90;;;;;;5036238;28;20215;-65
2022/03/23 13:22:40;;;;;;;5.28;4.97;;;18.50;99.90;;;;;;5035363;28;20362;-66
2022/03/23 13:25:09;;;;;;;5.40;5.10;;;18.50;99.90;;;;;;5035275;28;20332;-67
2022/03/23 13:27:37;;;;;;;5.82;5.50;;;18.60;99.90;;;;;;5035470;28;20319;-66
2022/03/23 13:30:08;;;;;;;5.70;5.30;;;18.50;99.90;;;;;;5035701;28;20209;-64
2022/03/23 13:32:39;;;;;;;5.32;5.03;;;18.30;99.90;;;;;;5036309;28;20275;-64
2022/03/23 13:35:13;;;;;;;5.07;4.78;;;18.40;99.90;;;;;;5044763;28;20201;-65
2022/03/23 13:37:58;;;;;;;5.00;4.70;;;18.50;99.90;;;;;;5046707;28;20205;-65
2022/03/23 13:40:27;;;;;;;4.93;4.63;;;18.60;99.90;;;;;;5042206;28;20787;-65